Terminal Aerodrome Forecast
Issued by NWS Jackson, MS

Home | Current Version | Previous Version | Text Only | Print | Product List | Glossary On
Versions: 1 2 3 4 5 6 7 8 9 10 11 12 13 14 15 16
000
FTUS44 KJAN 212300
TAFJAN
TAF
KJAN 212320Z 2200/2224 15003KT P6SM SCT015 BKN250
     FM220300 16004KT P6SM OVC015
     FM220900 16004KT 4SM BR OVC007
     FM221100 16005KT 2SM BR OVC003
     FM221400 17007KT 4SM BR OVC007
     FM221600 17009KT P6SM OVC007
     FM221800 17009KT P6SM OVC015=

USA.gov is the U.S. government's official web portal to all federal, state and local government web resources and services.